sensor_id;sensor_type;location;lat;lon;timestamp;P1;durP1;ratioP1;P2;durP2;ratioP2
21239;SDS011;10778;48.962;9.018;2023-03-04T00:01:48;44.50;;;24.05;;
21239;SDS011;10778;48.962;9.018;2023-03-04T00:04:15;47.83;;;23.92;;
21239;SDS011;10778;48.962;9.018;2023-03-04T00:06:42;48.70;;;23.80;;
21239;SDS011;10778;48.962;9.018;2023-03-04T00:09:08;46.83;;;24.20;;
21239;SDS011;10778;48.962;9.018;2023-03-04T00:11:35;46.72;;;23.48;;
21239;SDS011;10778;48.962;9.018;2023-03-04T00:14:01;45.38;;;22.85;;
21239;SDS011;10778;48.962;9.018;2023-03-04T00:16:27;47.33;;;23.48;;
21239;SDS011;10778;48.962;9.018;2023-03-04T00:18:53;45.88;;;22.65;;
21239;SDS011;10778;48.962;9.018;2023-03-04T00:21:20;43.95;;;22.63;;
21239;SDS011;10778;48.962;9.018;2023-03-04T00:23:47;44.22;;;23.13;;
21239;SDS011;10778;48.962;9.018;2023-03-04T00:26:13;43.33;;;22.35;;
21239;SDS011;10778;48.962;9.018;2023-03-04T00:28:41;45.17;;;22.33;;
21239;SDS011;10778;48.962;9.018;2023-03-04T00:31:07;43.80;;;22.85;;
21239;SDS011;10778;48.962;9.018;2023-03-04T00:33:34;40.42;;;21.48;;
21239;SDS011;10778;48.962;9.018;2023-03-04T00:36:00;46.00;;;23.92;;
21239;SDS011;10778;48.962;9.018;2023-03-04T00:38:27;47.55;;;23.98;;
21239;SDS011;10778;48.962;9.018;2023-03-04T00:40:53;47.38;;;24.40;;
21239;SDS011;10778;48.962;9.018;2023-03-04T00:43:19;47.92;;;24.42;;
21239;SDS011;10778;48.962;9.018;2023-03-04T00:45:46;43.70;;;23.60;;
21239;SDS011;10778;48.962;9.018;2023-03-04T00:48:13;48.13;;;24.40;;
21239;SDS011;10778;48.962;9.018;2023-03-04T00:50:41;46.53;;;24.33;;
21239;SDS011;10778;48.962;9.018;2023-03-04T00:53:08;46.78;;;23.45;;
21239;SDS011;10778;48.962;9.018;2023-03-04T00:55:34;48.95;;;24.10;;
21239;SDS011;10778;48.962;9.018;2023-03-04T00:58:00;47.72;;;23.33;;
21239;SDS011;10778;48.962;9.018;2023-03-04T01:00:26;45.42;;;23.20;;
21239;SDS011;10778;48.962;9.018;2023-03-04T01:02:52;45.03;;;23.48;;
21239;SDS011;10778;48.962;9.018;2023-03-04T01:05:18;45.97;;;23.35;;
21239;SDS011;10778;48.962;9.018;2023-03-04T01:07:44;48.53;;;24.13;;
21239;SDS011;10778;48.962;9.018;2023-03-04T01:10:11;58.67;;;28.33;;
21239;SDS011;10778;48.962;9.018;2023-03-04T01:12:40;62.60;;;29.85;;
21239;SDS011;10778;48.962;9.018;2023-03-04T01:15:11;57.95;;;27.33;;
21239;SDS011;10778;48.962;9.018;2023-03-04T01:17:38;55.50;;;27.90;;
21239;SDS011;10778;48.962;9.018;2023-03-04T01:20:05;54.63;;;27.33;;
21239;SDS011;10778;48.962;9.018;2023-03-04T01:22:34;45.80;;;24.13;;
21239;SDS011;10778;48.962;9.018;2023-03-04T01:25:00;47.30;;;23.65;;
21239;SDS011;10778;48.962;9.018;2023-03-04T01:27:26;47.75;;;24.10;;
21239;SDS011;10778;48.962;9.018;2023-03-04T01:29:52;47.33;;;24.10;;
21239;SDS011;10778;48.962;9.018;2023-03-04T01:32:18;41.72;;;23.67;;
21239;SDS011;10778;48.962;9.018;2023-03-04T01:34:44;44.95;;;24.27;;
21239;SDS011;10778;48.962;9.018;2023-03-04T01:37:11;46.67;;;24.02;;
21239;SDS011;10778;48.962;9.018;2023-03-04T01:39:38;46.88;;;22.40;;
21239;SDS011;10778;48.962;9.018;2023-03-04T01:42:04;42.95;;;22.00;;
21239;SDS011;10778;48.962;9.018;2023-03-04T01:44:31;42.75;;;21.92;;
21239;SDS011;10778;48.962;9.018;2023-03-04T01:46:57;44.53;;;22.58;;
21239;SDS011;10778;48.962;9.018;2023-03-04T01:49:23;43.90;;;20.90;;
21239;SDS011;10778;48.962;9.018;2023-03-04T01:51:51;37.65;;;20.42;;
21239;SDS011;10778;48.962;9.018;2023-03-04T01:54:19;41.03;;;21.60;;
21239;SDS011;10778;48.962;9.018;2023-03-04T01:56:47;42.40;;;21.23;;
21239;SDS011;10778;48.962;9.018;2023-03-04T01:59:23;40.90;;;20.67;;
21239;SDS011;10778;48.962;9.018;2023-03-04T02:01:55;40.35;;;20.15;;
21239;SDS011;10778;48.962;9.018;2023-03-04T02:04:24;40.92;;;20.52;;
21239;SDS011;10778;48.962;9.018;2023-03-04T02:06:53;45.30;;;22.33;;
21239;SDS011;10778;48.962;9.018;2023-03-04T02:09:20;42.15;;;20.48;;
21239;SDS011;10778;48.962;9.018;2023-03-04T02:11:47;41.15;;;20.25;;
21239;SDS011;10778;48.962;9.018;2023-03-04T02:14:17;43.85;;;21.02;;
21239;SDS011;10778;48.962;9.018;2023-03-04T02:16:44;37.30;;;19.73;;
21239;SDS011;10778;48.962;9.018;2023-03-04T02:22:04;40.35;;;19.05;;
21239;SDS011;10778;48.962;9.018;2023-03-04T02:24:33;36.35;;;18.55;;
21239;SDS011;10778;48.962;9.018;2023-03-04T02:27:03;38.38;;;19.73;;
21239;SDS011;10778;48.962;9.018;2023-03-04T02:29:29;38.38;;;18.75;;
21239;SDS011;10778;48.962;9.018;2023-03-04T02:31:56;37.33;;;18.63;;
21239;SDS011;10778;48.962;9.018;2023-03-04T02:34:29;39.05;;;20.30;;
21239;SDS011;10778;48.962;9.018;2023-03-04T02:36:57;34.92;;;18.92;;
21239;SDS011;10778;48.962;9.018;2023-03-04T02:39:30;38.42;;;18.65;;
21239;SDS011;10778;48.962;9.018;2023-03-04T02:41:58;38.13;;;19.02;;
21239;SDS011;10778;48.962;9.018;2023-03-04T02:44:27;35.72;;;17.85;;
21239;SDS011;10778;48.962;9.018;2023-03-04T02:46:57;36.90;;;18.77;;
21239;SDS011;10778;48.962;9.018;2023-03-04T02:49:25;40.13;;;19.30;;
21239;SDS011;10778;48.962;9.018;2023-03-04T02:51:58;37.05;;;17.95;;
21239;SDS011;10778;48.962;9.018;2023-03-04T02:54:42;35.60;;;17.50;;
21239;SDS011;10778;48.962;9.018;2023-03-04T02:57:10;35.42;;;17.58;;
21239;SDS011;10778;48.962;9.018;2023-03-04T02:59:40;36.03;;;18.00;;
21239;SDS011;10778;48.962;9.018;2023-03-04T03:02:09;38.88;;;18.65;;
21239;SDS011;10778;48.962;9.018;2023-03-04T03:04:36;36.45;;;17.50;;
21239;SDS011;10778;48.962;9.018;2023-03-04T03:07:07;42.45;;;18.42;;
21239;SDS011;10778;48.962;9.018;2023-03-04T03:09:33;36.05;;;17.60;;
21239;SDS011;10778;48.962;9.018;2023-03-04T03:11:59;37.55;;;18.05;;
21239;SDS011;10778;48.962;9.018;2023-03-04T03:14:25;39.00;;;18.90;;
21239;SDS011;10778;48.962;9.018;2023-03-04T03:16:52;34.72;;;17.63;;
21239;SDS011;10778;48.962;9.018;2023-03-04T03:19:18;35.28;;;16.52;;
21239;SDS011;10778;48.962;9.018;2023-03-04T03:21:44;38.47;;;18.52;;
21239;SDS011;10778;48.962;9.018;2023-03-04T03:24:10;35.60;;;18.05;;
21239;SDS011;10778;48.962;9.018;2023-03-04T03:26:36;33.78;;;18.15;;
21239;SDS011;10778;48.962;9.018;2023-03-04T03:29:04;36.78;;;18.35;;
21239;SDS011;10778;48.962;9.018;2023-03-04T03:31:30;37.40;;;18.20;;
21239;SDS011;10778;48.962;9.018;2023-03-04T03:33:56;35.10;;;17.85;;
21239;SDS011;10778;48.962;9.018;2023-03-04T03:36:23;34.00;;;17.35;;
21239;SDS011;10778;48.962;9.018;2023-03-04T03:38:49;39.60;;;19.05;;
21239;SDS011;10778;48.962;9.018;2023-03-04T03:41:14;42.55;;;19.83;;
21239;SDS011;10778;48.962;9.018;2023-03-04T03:43:40;38.60;;;18.80;;
21239;SDS011;10778;48.962;9.018;2023-03-04T03:46:06;37.25;;;19.33;;
21239;SDS011;10778;48.962;9.018;2023-03-04T03:48:32;45.88;;;23.10;;
21239;SDS011;10778;48.962;9.018;2023-03-04T03:50:58;42.97;;;22.80;;
21239;SDS011;10778;48.962;9.018;2023-03-04T03:53:24;46.55;;;22.52;;
21239;SDS011;10778;48.962;9.018;2023-03-04T03:55:50;50.38;;;25.10;;
21239;SDS011;10778;48.962;9.018;2023-03-04T03:58:16;42.75;;;21.13;;
21239;SDS011;10778;48.962;9.018;2023-03-04T04:00:42;44.92;;;20.70;;
21239;SDS011;10778;48.962;9.018;2023-03-04T04:03:10;44.78;;;21.85;;
21239;SDS011;10778;48.962;9.018;2023-03-04T04:05:39;48.65;;;22.88;;
21239;SDS011;10778;48.962;9.018;2023-03-04T04:08:05;43.35;;;22.00;;
21239;SDS011;10778;48.962;9.018;2023-03-04T04:10:31;40.42;;;19.92;;
21239;SDS011;10778;48.962;9.018;2023-03-04T04:12:57;40.70;;;20.00;;
21239;SDS011;10778;48.962;9.018;2023-03-04T04:15:24;43.53;;;20.17;;
21239;SDS011;10778;48.962;9.018;2023-03-04T04:17:50;45.63;;;21.65;;
21239;SDS011;10778;48.962;9.018;2023-03-04T04:20:16;49.13;;;24.15;;
21239;SDS011;10778;48.962;9.018;2023-03-04T04:22:42;48.72;;;22.60;;
21239;SDS011;10778;48.962;9.018;2023-03-04T04:25:08;53.35;;;24.63;;
21239;SDS011;10778;48.962;9.018;2023-03-04T04:27:35;66.72;;;27.80;;
21239;SDS011;10778;48.962;9.018;2023-03-04T04:30:01;73.78;;;31.08;;
21239;SDS011;10778;48.962;9.018;2023-03-04T04:32:28;75.78;;;33.92;;
21239;SDS011;10778;48.962;9.018;2023-03-04T04:34:54;59.97;;;26.30;;
21239;SDS011;10778;48.962;9.018;2023-03-04T04:37:20;50.58;;;22.65;;
21239;SDS011;10778;48.962;9.018;2023-03-04T04:39:46;47.70;;;21.75;;
21239;SDS011;10778;48.962;9.018;2023-03-04T04:42:12;47.50;;;21.50;;
21239;SDS011;10778;48.962;9.018;2023-03-04T04:44:38;47.75;;;21.58;;
21239;SDS011;10778;48.962;9.018;2023-03-04T04:47:05;44.72;;;20.88;;
21239;SDS011;10778;48.962;9.018;2023-03-04T04:49:31;46.95;;;21.13;;
21239;SDS011;10778;48.962;9.018;2023-03-04T04:51:57;56.83;;;26.70;;
21239;SDS011;10778;48.962;9.018;2023-03-04T04:54:23;58.70;;;26.13;;
21239;SDS011;10778;48.962;9.018;2023-03-04T04:56:50;49.33;;;23.60;;
21239;SDS011;10778;48.962;9.018;2023-03-04T04:59:16;56.88;;;25.90;;
21239;SDS011;10778;48.962;9.018;2023-03-04T05:01:42;48.97;;;23.92;;
21239;SDS011;10778;48.962;9.018;2023-03-04T05:04:08;45.33;;;21.88;;
21239;SDS011;10778;48.962;9.018;2023-03-04T05:06:34;43.38;;;20.52;;
21239;SDS011;10778;48.962;9.018;2023-03-04T05:09:00;51.85;;;27.17;;
21239;SDS011;10778;48.962;9.018;2023-03-04T05:11:26;50.65;;;26.45;;
21239;SDS011;10778;48.962;9.018;2023-03-04T05:13:52;49.78;;;25.85;;
21239;SDS011;10778;48.962;9.018;2023-03-04T05:16:18;50.20;;;24.33;;
21239;SDS011;10778;48.962;9.018;2023-03-04T05:18:44;48.47;;;23.10;;
21239;SDS011;10778;48.962;9.018;2023-03-04T05:21:11;49.13;;;22.42;;
21239;SDS011;10778;48.962;9.018;2023-03-04T05:23:38;48.13;;;23.13;;
21239;SDS011;10778;48.962;9.018;2023-03-04T05:26:06;63.10;;;29.17;;
21239;SDS011;10778;48.962;9.018;2023-03-04T05:28:33;71.90;;;32.75;;
21239;SDS011;10778;48.962;9.018;2023-03-04T05:31:00;65.07;;;28.95;;
21239;SDS011;10778;48.962;9.018;2023-03-04T05:33:26;64.85;;;29.30;;
21239;SDS011;10778;48.962;9.018;2023-03-04T05:35:52;58.42;;;26.83;;
21239;SDS011;10778;48.962;9.018;2023-03-04T05:38:19;52.63;;;23.80;;
21239;SDS011;10778;48.962;9.018;2023-03-04T05:40:47;48.78;;;22.42;;
21239;SDS011;10778;48.962;9.018;2023-03-04T05:43:13;45.78;;;20.80;;
21239;SDS011;10778;48.962;9.018;2023-03-04T05:45:40;48.08;;;21.88;;
21239;SDS011;10778;48.962;9.018;2023-03-04T05:48:07;51.35;;;22.15;;
21239;SDS011;10778;48.962;9.018;2023-03-04T05:50:34;47.70;;;21.95;;
21239;SDS011;10778;48.962;9.018;2023-03-04T05:53:00;46.03;;;21.50;;
21239;SDS011;10778;48.962;9.018;2023-03-04T05:55:26;51.83;;;24.05;;
21239;SDS011;10778;48.962;9.018;2023-03-04T05:57:54;57.35;;;25.50;;
21239;SDS011;10778;48.962;9.018;2023-03-04T06:00:20;57.28;;;24.88;;
21239;SDS011;10778;48.962;9.018;2023-03-04T06:02:46;59.45;;;25.90;;
21239;SDS011;10778;48.962;9.018;2023-03-04T06:05:13;57.47;;;26.80;;
21239;SDS011;10778;48.962;9.018;2023-03-04T06:07:39;70.90;;;32.15;;
21239;SDS011;10778;48.962;9.018;2023-03-04T06:10:08;61.80;;;29.60;;
21239;SDS011;10778;48.962;9.018;2023-03-04T06:12:35;67.20;;;31.60;;
21239;SDS011;10778;48.962;9.018;2023-03-04T06:15:02;62.80;;;29.45;;
21239;SDS011;10778;48.962;9.018;2023-03-04T06:17:28;67.35;;;32.65;;
21239;SDS011;10778;48.962;9.018;2023-03-04T06:19:55;91.07;;;40.67;;
21239;SDS011;10778;48.962;9.018;2023-03-04T06:22:21;96.28;;;43.28;;
21239;SDS011;10778;48.962;9.018;2023-03-04T06:24:47;79.45;;;36.75;;
21239;SDS011;10778;48.962;9.018;2023-03-04T06:27:13;70.20;;;32.38;;
21239;SDS011;10778;48.962;9.018;2023-03-04T06:29:41;60.88;;;28.80;;
21239;SDS011;10778;48.962;9.018;2023-03-04T06:32:07;54.95;;;25.40;;
21239;SDS011;10778;48.962;9.018;2023-03-04T06:34:33;46.25;;;22.27;;
21239;SDS011;10778;48.962;9.018;2023-03-04T06:36:59;51.55;;;23.80;;
21239;SDS011;10778;48.962;9.018;2023-03-04T06:39:25;60.17;;;27.95;;
21239;SDS011;10778;48.962;9.018;2023-03-04T06:41:51;77.60;;;33.47;;
21239;SDS011;10778;48.962;9.018;2023-03-04T06:44:17;62.63;;;27.92;;
21239;SDS011;10778;48.962;9.018;2023-03-04T06:46:43;58.90;;;26.70;;
21239;SDS011;10778;48.962;9.018;2023-03-04T06:49:09;53.97;;;24.58;;
21239;SDS011;10778;48.962;9.018;2023-03-04T06:51:35;55.70;;;26.40;;
21239;SDS011;10778;48.962;9.018;2023-03-04T06:54:01;63.30;;;27.25;;
21239;SDS011;10778;48.962;9.018;2023-03-04T06:56:27;57.83;;;25.50;;
21239;SDS011;10778;48.962;9.018;2023-03-04T06:58:53;55.45;;;25.38;;
21239;SDS011;10778;48.962;9.018;2023-03-04T07:03:48;60.45;;;29.35;;
21239;SDS011;10778;48.962;9.018;2023-03-04T07:06:16;64.78;;;29.23;;
21239;SDS011;10778;48.962;9.018;2023-03-04T07:08:44;66.07;;;30.05;;
21239;SDS011;10778;48.962;9.018;2023-03-04T07:11:11;65.55;;;29.48;;
21239;SDS011;10778;48.962;9.018;2023-03-04T07:13:37;60.53;;;28.45;;
21239;SDS011;10778;48.962;9.018;2023-03-04T07:16:04;60.53;;;27.48;;
21239;SDS011;10778;48.962;9.018;2023-03-04T07:18:31;55.03;;;24.75;;
21239;SDS011;10778;48.962;9.018;2023-03-04T07:20:57;62.65;;;27.33;;
21239;SDS011;10778;48.962;9.018;2023-03-04T07:23:23;58.72;;;26.40;;
21239;SDS011;10778;48.962;9.018;2023-03-04T07:25:49;62.90;;;27.50;;
21239;SDS011;10778;48.962;9.018;2023-03-04T07:28:16;66.78;;;27.63;;
21239;SDS011;10778;48.962;9.018;2023-03-04T07:30:42;70.68;;;28.88;;
21239;SDS011;10778;48.962;9.018;2023-03-04T07:33:09;62.55;;;27.92;;
21239;SDS011;10778;48.962;9.018;2023-03-04T07:35:35;72.25;;;29.90;;
21239;SDS011;10778;48.962;9.018;2023-03-04T07:38:01;65.75;;;29.02;;
21239;SDS011;10778;48.962;9.018;2023-03-04T07:40:27;67.13;;;28.25;;
21239;SDS011;10778;48.962;9.018;2023-03-04T07:42:54;65.68;;;27.88;;
21239;SDS011;10778;48.962;9.018;2023-03-04T07:45:20;66.25;;;29.08;;
21239;SDS011;10778;48.962;9.018;2023-03-04T07:47:47;67.13;;;28.33;;
21239;SDS011;10778;48.962;9.018;2023-03-04T07:50:14;64.57;;;27.73;;
21239;SDS011;10778;48.962;9.018;2023-03-04T07:52:42;58.15;;;26.40;;
21239;SDS011;10778;48.962;9.018;2023-03-04T07:55:10;60.42;;;27.63;;
21239;SDS011;10778;48.962;9.018;2023-03-04T07:57:38;59.45;;;26.55;;
21239;SDS011;10778;48.962;9.018;2023-03-04T08:00:05;63.40;;;27.95;;
21239;SDS011;10778;48.962;9.018;2023-03-04T08:02:38;60.97;;;28.15;;
21239;SDS011;10778;48.962;9.018;2023-03-04T08:05:04;63.17;;;27.98;;
21239;SDS011;10778;48.962;9.018;2023-03-04T08:07:31;60.83;;;27.35;;
21239;SDS011;10778;48.962;9.018;2023-03-04T08:09:57;62.13;;;28.20;;
21239;SDS011;10778;48.962;9.018;2023-03-04T08:12:24;59.67;;;27.85;;
21239;SDS011;10778;48.962;9.018;2023-03-04T08:14:50;58.88;;;26.73;;
21239;SDS011;10778;48.962;9.018;2023-03-04T08:17:17;61.85;;;28.63;;
21239;SDS011;10778;48.962;9.018;2023-03-04T08:19:43;59.92;;;28.05;;
21239;SDS011;10778;48.962;9.018;2023-03-04T08:22:09;58.97;;;27.75;;
21239;SDS011;10778;48.962;9.018;2023-03-04T08:24:36;55.95;;;26.10;;
21239;SDS011;10778;48.962;9.018;2023-03-04T08:27:02;58.83;;;27.10;;
21239;SDS011;10778;48.962;9.018;2023-03-04T08:29:30;52.78;;;25.15;;
21239;SDS011;10778;48.962;9.018;2023-03-04T08:31:56;59.50;;;26.63;;
21239;SDS011;10778;48.962;9.018;2023-03-04T08:34:23;57.28;;;26.42;;
21239;SDS011;10778;48.962;9.018;2023-03-04T08:36:51;56.55;;;26.00;;
21239;SDS011;10778;48.962;9.018;2023-03-04T08:39:17;54.67;;;25.05;;
21239;SDS011;10778;48.962;9.018;2023-03-04T08:41:44;59.50;;;26.80;;
21239;SDS011;10778;48.962;9.018;2023-03-04T08:44:11;60.67;;;27.98;;
21239;SDS011;10778;48.962;9.018;2023-03-04T08:46:37;54.42;;;25.23;;
21239;SDS011;10778;48.962;9.018;2023-03-04T08:49:05;56.53;;;26.55;;
21239;SDS011;10778;48.962;9.018;2023-03-04T08:51:32;57.70;;;27.02;;
21239;SDS011;10778;48.962;9.018;2023-03-04T08:54:00;62.15;;;28.25;;
21239;SDS011;10778;48.962;9.018;2023-03-04T08:56:27;65.35;;;28.33;;
21239;SDS011;10778;48.962;9.018;2023-03-04T08:58:53;58.00;;;28.23;;
21239;SDS011;10778;48.962;9.018;2023-03-04T09:01:19;55.25;;;26.88;;
21239;SDS011;10778;48.962;9.018;2023-03-04T09:03:45;60.65;;;27.63;;
21239;SDS011;10778;48.962;9.018;2023-03-04T09:06:12;56.28;;;27.00;;
21239;SDS011;10778;48.962;9.018;2023-03-04T09:08:40;55.13;;;26.95;;
21239;SDS011;10778;48.962;9.018;2023-03-04T09:11:07;57.38;;;26.55;;
21239;SDS011;10778;48.962;9.018;2023-03-04T09:13:33;53.63;;;26.00;;
21239;SDS011;10778;48.962;9.018;2023-03-04T09:16:00;53.28;;;25.90;;
21239;SDS011;10778;48.962;9.018;2023-03-04T09:18:27;51.50;;;24.77;;
21239;SDS011;10778;48.962;9.018;2023-03-04T09:20:53;51.83;;;25.15;;
21239;SDS011;10778;48.962;9.018;2023-03-04T09:23:20;47.67;;;23.63;;
21239;SDS011;10778;48.962;9.018;2023-03-04T09:25:46;53.45;;;25.90;;
21239;SDS011;10778;48.962;9.018;2023-03-04T09:28:14;52.90;;;26.23;;
21239;SDS011;10778;48.962;9.018;2023-03-04T09:30:41;51.92;;;23.65;;
21239;SDS011;10778;48.962;9.018;2023-03-04T09:33:08;45.78;;;23.13;;
21239;SDS011;10778;48.962;9.018;2023-03-04T09:35:34;43.10;;;23.08;;
21239;SDS011;10778;48.962;9.018;2023-03-04T09:38:01;44.65;;;23.00;;
21239;SDS011;10778;48.962;9.018;2023-03-04T09:40:28;43.50;;;22.92;;
21239;SDS011;10778;48.962;9.018;2023-03-04T09:43:01;45.10;;;22.63;;
21239;SDS011;10778;48.962;9.018;2023-03-04T09:45:50;40.72;;;22.27;;
21239;SDS011;10778;48.962;9.018;2023-03-04T09:48:19;42.85;;;22.70;;
21239;SDS011;10778;48.962;9.018;2023-03-04T09:51:11;44.22;;;23.67;;
21239;SDS011;10778;48.962;9.018;2023-03-04T09:54:09;39.58;;;22.90;;
21239;SDS011;10778;48.962;9.018;2023-03-04T09:56:43;39.60;;;21.90;;
21239;SDS011;10778;48.962;9.018;2023-03-04T09:59:14;41.00;;;22.95;;
21239;SDS011;10778;48.962;9.018;2023-03-04T10:01:48;39.92;;;22.45;;
21239;SDS011;10778;48.962;9.018;2023-03-04T10:04:24;39.97;;;22.95;;
21239;SDS011;10778;48.962;9.018;2023-03-04T10:06:55;39.25;;;22.27;;
21239;SDS011;10778;48.962;9.018;2023-03-04T10:09:22;40.47;;;22.40;;
21239;SDS011;10778;48.962;9.018;2023-03-04T10:14:44;41.85;;;24.42;;
21239;SDS011;10778;48.962;9.018;2023-03-04T10:17:33;47.97;;;27.48;;
21239;SDS011;10778;48.962;9.018;2023-03-04T10:33:19;46.08;;;26.42;;
21239;SDS011;10778;48.962;9.018;2023-03-04T10:36:04;48.05;;;27.70;;
21239;SDS011;10778;48.962;9.018;2023-03-04T10:41:40;52.15;;;29.70;;
21239;SDS011;10778;48.962;9.018;2023-03-04T10:46:41;54.75;;;30.85;;
21239;SDS011;10778;48.962;9.018;2023-03-04T10:49:09;52.88;;;30.60;;
21239;SDS011;10778;48.962;9.018;2023-03-04T10:51:43;56.00;;;31.58;;
21239;SDS011;10778;48.962;9.018;2023-03-04T10:56:53;55.58;;;31.48;;
21239;SDS011;10778;48.962;9.018;2023-03-04T11:02:16;57.80;;;30.75;;
21239;SDS011;10778;48.962;9.018;2023-03-04T11:05:23;56.78;;;31.17;;
21239;SDS011;10778;48.962;9.018;2023-03-04T11:07:55;55.13;;;31.10;;
21239;SDS011;10778;48.962;9.018;2023-03-04T11:10:26;57.70;;;30.58;;
21239;SDS011;10778;48.962;9.018;2023-03-04T11:12:58;60.90;;;32.38;;
21239;SDS011;10778;48.962;9.018;2023-03-04T11:15:25;55.13;;;31.08;;
21239;SDS011;10778;48.962;9.018;2023-03-04T11:18:02;56.72;;;32.67;;
21239;SDS011;10778;48.962;9.018;2023-03-04T11:20:33;59.88;;;33.28;;
21239;SDS011;10778;48.962;9.018;2023-03-04T11:23:14;59.83;;;32.58;;
21239;SDS011;10778;48.962;9.018;2023-03-04T11:25:44;63.80;;;33.97;;
21239;SDS011;10778;48.962;9.018;2023-03-04T11:31:05;63.78;;;32.75;;
21239;SDS011;10778;48.962;9.018;2023-03-04T11:33:43;60.33;;;30.95;;
21239;SDS011;10778;48.962;9.018;2023-03-04T11:39:07;58.20;;;31.80;;
21239;SDS011;10778;48.962;9.018;2023-03-04T11:41:46;64.35;;;33.00;;
21239;SDS011;10778;48.962;9.018;2023-03-04T11:44:24;72.30;;;35.30;;
21239;SDS011;10778;48.962;9.018;2023-03-04T11:49:53;73.43;;;38.53;;
21239;SDS011;10778;48.962;9.018;2023-03-04T11:57:55;61.70;;;32.55;;
21239;SDS011;10778;48.962;9.018;2023-03-04T12:00:39;58.00;;;31.55;;
21239;SDS011;10778;48.962;9.018;2023-03-04T12:08:58;52.55;;;29.40;;
21239;SDS011;10778;48.962;9.018;2023-03-04T12:11:33;50.60;;;28.35;;
21239;SDS011;10778;48.962;9.018;2023-03-04T12:26:48;44.90;;;24.10;;
21239;SDS011;10778;48.962;9.018;2023-03-04T12:34:51;41.45;;;22.75;;
21239;SDS011;10778;48.962;9.018;2023-03-04T12:43:02;40.65;;;22.23;;
21239;SDS011;10778;48.962;9.018;2023-03-04T12:56:30;41.53;;;20.52;;
21239;SDS011;10778;48.962;9.018;2023-03-04T12:59:04;43.30;;;21.48;;
21239;SDS011;10778;48.962;9.018;2023-03-04T13:01:41;39.17;;;21.33;;
21239;SDS011;10778;48.962;9.018;2023-03-04T13:04:22;39.45;;;21.00;;
21239;SDS011;10778;48.962;9.018;2023-03-04T13:07:07;42.65;;;21.83;;
21239;SDS011;10778;48.962;9.018;2023-03-04T13:12:45;43.92;;;20.10;;
21239;SDS011;10778;48.962;9.018;2023-03-04T13:17:50;36.67;;;19.40;;
21239;SDS011;10778;48.962;9.018;2023-03-04T13:20:21;40.95;;;19.85;;
21239;SDS011;10778;48.962;9.018;2023-03-04T13:25:42;41.42;;;20.25;;
21239;SDS011;10778;48.962;9.018;2023-03-04T13:36:01;37.83;;;20.35;;
21239;SDS011;10778;48.962;9.018;2023-03-04T13:43:25;37.22;;;19.92;;
21239;SDS011;10778;48.962;9.018;2023-03-04T13:45:53;37.70;;;19.17;;
21239;SDS011;10778;48.962;9.018;2023-03-04T13:48:24;36.63;;;18.38;;
21239;SDS011;10778;48.962;9.018;2023-03-04T13:50:54;41.10;;;20.42;;
21239;SDS011;10778;48.962;9.018;2023-03-04T13:53:26;36.83;;;18.48;;
21239;SDS011;10778;48.962;9.018;2023-03-04T13:58:34;38.60;;;16.90;;
21239;SDS011;10778;48.962;9.018;2023-03-04T14:01:02;35.60;;;17.20;;
21239;SDS011;10778;48.962;9.018;2023-03-04T14:03:30;32.63;;;16.55;;
21239;SDS011;10778;48.962;9.018;2023-03-04T14:06:39;40.47;;;17.40;;
21239;SDS011;10778;48.962;9.018;2023-03-04T14:08:48;31.92;;;15.68;;
21239;SDS011;10778;48.962;9.018;2023-03-04T14:11:23;32.47;;;15.48;;
21239;SDS011;10778;48.962;9.018;2023-03-04T14:13:53;41.20;;;18.15;;
21239;SDS011;10778;48.962;9.018;2023-03-04T14:16:22;33.28;;;16.45;;
21239;SDS011;10778;48.962;9.018;2023-03-04T14:18:59;40.35;;;16.60;;
21239;SDS011;10778;48.962;9.018;2023-03-04T14:21:27;43.60;;;21.38;;
21239;SDS011;10778;48.962;9.018;2023-03-04T14:24:01;41.75;;;19.02;;
21239;SDS011;10778;48.962;9.018;2023-03-04T14:26:32;41.67;;;19.42;;
21239;SDS011;10778;48.962;9.018;2023-03-04T14:28:59;42.60;;;19.80;;
21239;SDS011;10778;48.962;9.018;2023-03-04T14:31:28;50.85;;;23.55;;
21239;SDS011;10778;48.962;9.018;2023-03-04T14:33:57;63.22;;;27.23;;
21239;SDS011;10778;48.962;9.018;2023-03-04T14:36:28;50.38;;;23.00;;
21239;SDS011;10778;48.962;9.018;2023-03-04T14:38:58;92.47;;;42.10;;
21239;SDS011;10778;48.962;9.018;2023-03-04T14:41:28;75.00;;;38.45;;
21239;SDS011;10778;48.962;9.018;2023-03-04T14:46:58;49.30;;;26.20;;
21239;SDS011;10778;48.962;9.018;2023-03-04T14:49:31;43.13;;;23.25;;
21239;SDS011;10778;48.962;9.018;2023-03-04T14:52:00;51.10;;;26.65;;
21239;SDS011;10778;48.962;9.018;2023-03-04T14:56:58;41.55;;;21.25;;
21239;SDS011;10778;48.962;9.018;2023-03-04T14:59:27;47.88;;;22.23;;
21239;SDS011;10778;48.962;9.018;2023-03-04T15:02:16;43.88;;;21.55;;
21239;SDS011;10778;48.962;9.018;2023-03-04T15:04:59;48.75;;;23.10;;
21239;SDS011;10778;48.962;9.018;2023-03-04T15:07:32;44.38;;;20.92;;
21239;SDS011;10778;48.962;9.018;2023-03-04T15:10:00;45.78;;;21.17;;
21239;SDS011;10778;48.962;9.018;2023-03-04T15:12:30;46.20;;;22.52;;
21239;SDS011;10778;48.962;9.018;2023-03-04T15:15:00;48.45;;;22.13;;
21239;SDS011;10778;48.962;9.018;2023-03-04T15:17:38;46.85;;;22.90;;
21239;SDS011;10778;48.962;9.018;2023-03-04T15:25:04;47.15;;;22.50;;
21239;SDS011;10778;48.962;9.018;2023-03-04T15:27:31;51.80;;;23.13;;
21239;SDS011;10778;48.962;9.018;2023-03-04T15:29:57;51.40;;;24.35;;
21239;SDS011;10778;48.962;9.018;2023-03-04T15:32:25;59.63;;;25.00;;
21239;SDS011;10778;48.962;9.018;2023-03-04T15:34:51;53.78;;;25.98;;
21239;SDS011;10778;48.962;9.018;2023-03-04T15:37:22;48.97;;;24.30;;
21239;SDS011;10778;48.962;9.018;2023-03-04T15:39:51;46.92;;;24.35;;
21239;SDS011;10778;48.962;9.018;2023-03-04T15:42:18;49.67;;;24.73;;
21239;SDS011;10778;48.962;9.018;2023-03-04T15:44:44;48.65;;;23.88;;
21239;SDS011;10778;48.962;9.018;2023-03-04T15:47:15;50.00;;;23.17;;
21239;SDS011;10778;48.962;9.018;2023-03-04T15:49:41;49.30;;;23.10;;
21239;SDS011;10778;48.962;9.018;2023-03-04T15:52:16;49.42;;;23.48;;
21239;SDS011;10778;48.962;9.018;2023-03-04T15:54:45;49.38;;;22.40;;
21239;SDS011;10778;48.962;9.018;2023-03-04T15:57:20;46.03;;;23.65;;
21239;SDS011;10778;48.962;9.018;2023-03-04T15:59:49;45.80;;;23.35;;
21239;SDS011;10778;48.962;9.018;2023-03-04T16:02:20;48.17;;;23.30;;
21239;SDS011;10778;48.962;9.018;2023-03-04T16:04:48;47.50;;;22.83;;
21239;SDS011;10778;48.962;9.018;2023-03-04T16:07:18;48.83;;;22.55;;
21239;SDS011;10778;48.962;9.018;2023-03-04T16:09:48;53.90;;;24.17;;
21239;SDS011;10778;48.962;9.018;2023-03-04T16:12:20;49.15;;;24.88;;
21239;SDS011;10778;48.962;9.018;2023-03-04T16:14:46;48.17;;;24.48;;
21239;SDS011;10778;48.962;9.018;2023-03-04T16:17:13;48.50;;;24.60;;
21239;SDS011;10778;48.962;9.018;2023-03-04T16:19:41;51.33;;;25.02;;
21239;SDS011;10778;48.962;9.018;2023-03-04T16:22:08;47.72;;;25.67;;
21239;SDS011;10778;48.962;9.018;2023-03-04T16:24:38;49.30;;;25.08;;
21239;SDS011;10778;48.962;9.018;2023-03-04T16:27:07;50.53;;;24.20;;
21239;SDS011;10778;48.962;9.018;2023-03-04T16:29:35;53.38;;;25.13;;
21239;SDS011;10778;48.962;9.018;2023-03-04T16:32:01;54.03;;;24.63;;